createdAt,value
2022-07-29T00:04:07.231Z,3.88
2022-07-29T00:09:10.571Z,3.70
2022-07-29T00:14:15.357Z,3.90
2022-07-29T00:19:20.415Z,4.10
2022-07-29T00:24:24.596Z,4.05
2022-07-29T00:29:35.507Z,3.78
2022-07-29T00:34:58.259Z,4.15
2022-07-29T00:40:01.565Z,3.55
2022-07-29T00:45:05.317Z,3.97
2022-07-29T00:50:12.862Z,3.45
2022-07-29T00:55:18.132Z,3.58
2022-07-29T01:00:23.768Z,3.38
2022-07-29T01:05:50.361Z,3.50
2022-07-29T01:10:55.304Z,3.05
2022-07-29T01:16:06.109Z,3.28
2022-07-29T01:21:29.960Z,3.67
2022-07-29T01:26:47.387Z,4.00
2022-07-29T01:32:01.401Z,3.35
2022-07-29T01:37:10.844Z,3.35
2022-07-29T01:42:20.552Z,3.20
2022-07-29T01:47:33.719Z,3.20
2022-07-29T01:52:45.096Z,4.05
2022-07-29T01:57:50.817Z,3.60
2022-07-29T02:02:57.651Z,7.57
2022-07-29T02:08:02.622Z,5.43
2022-07-29T02:13:07.990Z,4.65
2022-07-29T02:18:20.346Z,3.83
2022-07-29T02:23:26.194Z,3.88
2022-07-29T02:28:34.477Z,5.05
2022-07-29T02:33:42.792Z,4.63
2022-07-29T02:38:53.716Z,4.60
2022-07-29T02:43:59.400Z,4.63
2022-07-29T02:49:11.542Z,4.30
2022-07-29T02:54:24.339Z,5.82
2022-07-29T02:59:29.902Z,5.65
2022-07-29T03:04:36.460Z,5.25
2022-07-29T03:09:40.965Z,6.50
2022-07-29T03:14:45.676Z,5.72
2022-07-29T03:19:50.671Z,5.25
2022-07-29T03:24:54.035Z,5.68
2022-07-29T03:29:57.409Z,5.70
2022-07-29T03:35:02.517Z,5.35
2022-07-29T03:40:10.317Z,5.28
2022-07-29T03:45:19.697Z,6.10
2022-07-29T03:50:30.336Z,5.13
2022-07-29T03:55:43.429Z,5.32
2022-07-29T04:00:48.616Z,5.40
2022-07-29T04:06:08.017Z,5.32
2022-07-29T04:11:11.462Z,5.18
2022-07-29T04:16:15.048Z,5.28
2022-07-29T04:26:48.832Z,5.32
2022-07-29T04:31:52.210Z,5.50
2022-07-29T04:36:57.014Z,5.10
2022-07-29T04:42:01.465Z,5.75
2022-07-29T04:47:09.623Z,5.50
2022-07-29T04:52:14.288Z,5.13
2022-07-29T04:57:17.587Z,5.07
2022-07-29T05:02:20.873Z,5.50
2022-07-29T05:07:26.375Z,4.88
2022-07-29T05:12:29.956Z,5.70
2022-07-29T05:17:33.311Z,7.47
2022-07-29T05:22:38.191Z,5.50
2022-07-29T05:27:41.640Z,5.55
2022-07-29T05:32:46.002Z,4.95
2022-07-29T05:37:50.706Z,4.75
2022-07-29T05:42:54.183Z,3.58
2022-07-29T05:47:58.488Z,3.15
2022-07-29T05:53:20.038Z,3.05
2022-07-29T05:58:27.867Z,2.55
2022-07-29T06:03:32.451Z,2.60
2022-07-29T06:08:40.511Z,2.78
2022-07-29T06:13:43.931Z,2.53
2022-07-29T06:18:47.652Z,2.35
2022-07-29T06:23:52.602Z,2.65
2022-07-29T06:28:56.927Z,2.57
2022-07-29T06:34:00.242Z,2.50
2022-07-29T06:39:06.777Z,1.88
2022-07-29T06:44:11.106Z,2.13
2022-07-29T06:49:15.145Z,2.20
2022-07-29T06:54:19.847Z,1.60
2022-07-29T06:59:30.973Z,1.60
2022-07-29T07:04:38.575Z,1.60
2022-07-29T07:09:43.769Z,1.48
2022-07-29T07:14:47.001Z,1.60
2022-07-29T07:19:50.318Z,2.00
2022-07-29T07:24:55.125Z,1.83
2022-07-29T07:29:58.486Z,1.88
2022-07-29T07:35:02.254Z,1.83
2022-07-29T07:40:08.126Z,1.75
2022-07-29T07:45:14.100Z,2.03
2022-07-29T07:50:19.846Z,1.70
2022-07-29T07:55:27.950Z,1.65
2022-07-29T08:00:31.740Z,1.73
2022-07-29T08:05:35.146Z,1.83
2022-07-29T08:10:57.097Z,1.90
2022-07-29T08:16:02.724Z,1.80
2022-07-29T08:21:06.478Z,1.83
2022-07-29T08:26:12.542Z,1.73
2022-07-29T08:31:17.525Z,1.70
2022-07-29T08:36:22.229Z,1.85
2022-07-29T08:41:27.491Z,1.80
2022-07-29T08:46:31.071Z,1.77
2022-07-29T08:51:49.152Z,1.80
2022-07-29T08:56:54.861Z,1.80
2022-07-29T09:02:01.720Z,1.77
2022-07-29T09:07:08.082Z,1.55
2022-07-29T09:12:13.585Z,1.83
2022-07-29T09:17:43.047Z,1.90
2022-07-29T09:22:50.123Z,1.85
2022-07-29T09:27:54.815Z,2.13
2022-07-29T09:33:01.143Z,2.05
2022-07-29T09:38:13.706Z,2.20
2022-07-29T09:43:18.506Z,2.65
2022-07-29T09:53:51.533Z,2.17
2022-07-29T09:59:08.110Z,2.20
2022-07-29T10:04:12.468Z,2.00
2022-07-29T10:09:18.155Z,2.20
2022-07-29T10:19:58.545Z,2.13
2022-07-29T10:25:02.015Z,2.47
2022-07-29T10:30:08.013Z,2.70
2022-07-29T10:35:30.029Z,2.55
2022-07-29T10:41:03.803Z,2.38
2022-07-29T10:46:13.391Z,2.90
2022-07-29T10:51:16.810Z,3.38
2022-07-29T11:02:27.693Z,2.53
2022-07-29T11:07:20.957Z,2.85
2022-07-29T11:12:49.114Z,2.55
2022-07-29T11:18:15.287Z,2.53
2022-07-29T11:23:33.392Z,2.15
2022-07-29T11:28:42.914Z,2.75
2022-07-29T11:33:56.251Z,2.53
2022-07-29T11:39:36.480Z,2.50
2022-07-29T11:44:56.093Z,2.10
2022-07-29T11:50:03.508Z,2.10
2022-07-29T11:55:17.431Z,1.52
2022-07-29T12:00:26.535Z,1.58
2022-07-29T12:05:48.512Z,1.83
2022-07-29T12:10:56.383Z,2.00
2022-07-29T12:16:01.548Z,1.88
2022-07-29T12:21:07.533Z,1.80
2022-07-29T12:26:25.308Z,1.38
2022-07-29T12:37:03.397Z,2.00
2022-07-29T12:42:14.013Z,1.90
2022-07-29T12:47:21.719Z,2.40
2022-07-29T12:52:31.096Z,1.90
2022-07-29T12:57:35.040Z,2.20
2022-07-29T13:02:39.009Z,2.83
2022-07-29T13:07:55.449Z,2.90
2022-07-29T13:13:09.231Z,3.15
2022-07-29T13:18:30.801Z,3.20
2022-07-29T13:23:38.374Z,3.63
2022-07-29T13:28:43.986Z,3.03
2022-07-29T13:33:48.926Z,2.70
2022-07-29T13:38:53.635Z,2.60
2022-07-29T13:44:02.778Z,2.75
2022-07-29T13:49:06.686Z,2.70
2022-07-29T13:54:16.567Z,2.80
2022-07-29T13:59:20.463Z,2.72
2022-07-29T14:04:24.576Z,2.67
2022-07-29T14:09:30.565Z,2.78
2022-07-29T14:14:44.600Z,2.40
2022-07-29T14:19:50.742Z,2.20
2022-07-29T14:24:55.527Z,2.50
2022-07-29T14:30:00.147Z,2.70
2022-07-29T14:35:12.738Z,3.05
2022-07-29T14:40:17.701Z,2.75
2022-07-29T14:45:21.243Z,2.55
2022-07-29T14:55:53.669Z,2.65
2022-07-29T15:00:59.152Z,2.78
2022-07-29T15:06:02.749Z,3.13
2022-07-29T15:11:07.455Z,2.70
2022-07-29T15:16:17.718Z,2.80
2022-07-29T15:21:26.671Z,2.88
2022-07-29T15:26:31.474Z,3.10
2022-07-29T15:31:34.939Z,3.35
2022-07-29T15:36:51.946Z,2.90
2022-07-29T15:41:58.071Z,3.70
2022-07-29T15:47:05.945Z,2.90
2022-07-29T15:52:25.140Z,3.22
2022-07-29T15:57:32.498Z,3.10
2022-07-29T16:02:43.344Z,3.47
2022-07-29T16:07:46.767Z,3.10
2022-07-29T16:12:51.636Z,2.72
2022-07-29T16:17:55.081Z,3.22
2022-07-29T16:22:58.691Z,3.00
2022-07-29T16:28:03.751Z,2.90
2022-07-29T16:33:08.553Z,2.70
2022-07-29T16:38:21.988Z,2.88
2022-07-29T16:43:26.835Z,2.90
2022-07-29T16:48:30.239Z,3.25
2022-07-29T16:53:34.138Z,3.10
2022-07-29T16:58:44.016Z,2.70
2022-07-29T17:04:09.636Z,3.92
2022-07-29T17:09:15.197Z,2.70
2022-07-29T17:14:24.012Z,2.78
2022-07-29T17:25:03.632Z,2.20
2022-07-29T17:30:11.300Z,3.05
2022-07-29T17:35:35.917Z,2.42
2022-07-29T17:40:39.165Z,2.03
2022-07-29T17:45:49.131Z,1.73
2022-07-29T17:51:00.299Z,2.10
2022-07-29T17:56:04.112Z,2.10
2022-07-29T18:01:10.351Z,2.00
2022-07-29T18:06:13.947Z,1.90
2022-07-29T18:11:17.370Z,2.03
2022-07-29T18:16:23.877Z,2.17
2022-07-29T18:21:43.764Z,1.75
2022-07-29T18:26:52.528Z,1.98
2022-07-29T18:32:00.024Z,2.10
2022-07-29T18:37:06.174Z,2.03
2022-07-29T18:42:11.820Z,1.88
2022-07-29T18:52:46.750Z,1.45
2022-07-29T18:57:53.663Z,1.77
2022-07-29T19:03:03.279Z,1.52
2022-07-29T19:08:07.587Z,1.38
2022-07-29T19:13:13.366Z,1.50
2022-07-29T19:18:18.380Z,1.40
2022-07-29T19:23:21.860Z,1.50
2022-07-29T19:28:25.417Z,1.70
2022-07-29T19:33:32.480Z,1.30
2022-07-29T19:38:36.174Z,1.20
2022-07-29T19:43:50.722Z,1.38
2022-07-29T19:48:59.168Z,1.70
2022-07-29T19:54:02.849Z,1.73
2022-07-29T19:59:07.403Z,1.45
2022-07-29T20:04:13.172Z,1.65
2022-07-29T20:09:20.377Z,1.90
2022-07-29T20:14:28.608Z,1.80
2022-07-29T20:19:34.679Z,2.08
2022-07-29T20:24:38.634Z,2.58
2022-07-29T20:29:46.953Z,1.90
2022-07-29T20:34:52.873Z,1.92
2022-07-29T20:39:56.203Z,2.13
2022-07-29T20:44:59.536Z,2.83
2022-07-29T20:50:04.859Z,2.08
2022-07-29T20:55:10.071Z,2.35
2022-07-29T21:00:14.428Z,2.17
2022-07-29T21:05:20.171Z,1.83
2022-07-29T21:10:23.934Z,1.73
2022-07-29T21:15:29.822Z,1.98
2022-07-29T21:20:34.839Z,2.05
2022-07-29T21:25:38.259Z,1.52
2022-07-29T21:30:41.864Z,2.05
2022-07-29T21:36:14.901Z,1.65
2022-07-29T21:41:12.711Z,1.65
2022-07-29T21:46:18.210Z,2.08
2022-07-29T21:51:22.968Z,1.83
2022-07-29T21:56:27.886Z,1.88
2022-07-29T22:01:38.846Z,1.75
2022-07-29T22:06:44.502Z,1.83
2022-07-29T22:11:48.644Z,2.10
2022-07-29T22:16:52.148Z,2.00
2022-07-29T22:21:56.820Z,1.95
2022-07-29T22:27:00.445Z,2.10
2022-07-29T22:32:03.936Z,1.60
2022-07-29T22:37:08.748Z,1.85
2022-07-29T22:42:12.091Z,2.13
2022-07-29T22:47:16.488Z,1.77
2022-07-29T22:52:26.162Z,1.98
2022-07-29T22:57:29.724Z,1.95
2022-07-29T23:02:33.052Z,2.13
2022-07-29T23:07:37.729Z,1.90
2022-07-29T23:12:40.960Z,1.85
2022-07-29T23:17:44.592Z,1.98
2022-07-29T23:22:49.354Z,2.20
2022-07-29T23:27:52.913Z,2.10
2022-07-29T23:32:56.586Z,1.88
2022-07-29T23:38:01.447Z,2.38
2022-07-29T23:43:08.924Z,2.30
2022-07-29T23:48:15.461Z,2.85
2022-07-29T23:53:22.246Z,2.40
2022-07-29T23:58:26.458Z,2.20
